sensor_id;sensor_type;location;lat;lon;timestamp;P1;durP1;ratioP1;P2;durP2;ratioP2
54201;SDS011;40108;53.152;5.844;2023-04-16T00:01:38;96.47;;;27.17;;
54201;SDS011;40108;53.152;5.844;2023-04-16T00:04:04;88.90;;;26.02;;
54201;SDS011;40108;53.152;5.844;2023-04-16T00:06:30;97.78;;;26.73;;
54201;SDS011;40108;53.152;5.844;2023-04-16T00:08:56;88.90;;;26.05;;
54201;SDS011;40108;53.152;5.844;2023-04-16T00:11:22;76.72;;;23.77;;
54201;SDS011;40108;53.152;5.844;2023-04-16T00:13:48;88.10;;;25.42;;
54201;SDS011;40108;53.152;5.844;2023-04-16T00:16:14;78.95;;;25.67;;
54201;SDS011;40108;53.152;5.844;2023-04-16T00:18:40;90.25;;;25.02;;
54201;SDS011;40108;53.152;5.844;2023-04-16T00:21:06;84.97;;;25.25;;
54201;SDS011;40108;53.152;5.844;2023-04-16T00:23:32;89.15;;;25.85;;
54201;SDS011;40108;53.152;5.844;2023-04-16T00:25:58;90.25;;;25.40;;
54201;SDS011;40108;53.152;5.844;2023-04-16T00:28:24;81.05;;;24.58;;
54201;SDS011;40108;53.152;5.844;2023-04-16T00:30:51;75.50;;;22.25;;
54201;SDS011;40108;53.152;5.844;2023-04-16T00:33:17;76.03;;;23.02;;
54201;SDS011;40108;53.152;5.844;2023-04-16T00:35:46;76.20;;;24.02;;
54201;SDS011;40108;53.152;5.844;2023-04-16T00:38:12;67.45;;;23.13;;
54201;SDS011;40108;53.152;5.844;2023-04-16T00:40:38;68.97;;;23.88;;
54201;SDS011;40108;53.152;5.844;2023-04-16T00:43:04;77.40;;;23.23;;
54201;SDS011;40108;53.152;5.844;2023-04-16T00:45:29;78.63;;;22.98;;
54201;SDS011;40108;53.152;5.844;2023-04-16T00:47:55;74.00;;;23.13;;
54201;SDS011;40108;53.152;5.844;2023-04-16T00:50:22;76.13;;;23.55;;
54201;SDS011;40108;53.152;5.844;2023-04-16T00:52:48;69.20;;;23.55;;
54201;SDS011;40108;53.152;5.844;2023-04-16T00:55:14;65.45;;;23.67;;
54201;SDS011;40108;53.152;5.844;2023-04-16T00:57:42;70.28;;;23.08;;
54201;SDS011;40108;53.152;5.844;2023-04-16T01:00:09;65.15;;;22.77;;
54201;SDS011;40108;53.152;5.844;2023-04-16T01:02:35;80.45;;;23.42;;
54201;SDS011;40108;53.152;5.844;2023-04-16T01:05:01;70.13;;;22.92;;
54201;SDS011;40108;53.152;5.844;2023-04-16T01:07:29;67.10;;;23.67;;
54201;SDS011;40108;53.152;5.844;2023-04-16T01:09:55;68.57;;;25.20;;
54201;SDS011;40108;53.152;5.844;2023-04-16T01:12:21;81.03;;;26.65;;
54201;SDS011;40108;53.152;5.844;2023-04-16T01:14:47;75.00;;;27.70;;
54201;SDS011;40108;53.152;5.844;2023-04-16T01:17:13;77.93;;;29.10;;
54201;SDS011;40108;53.152;5.844;2023-04-16T01:19:39;75.28;;;28.83;;
54201;SDS011;40108;53.152;5.844;2023-04-16T01:22:06;76.28;;;27.95;;
54201;SDS011;40108;53.152;5.844;2023-04-16T01:24:32;72.97;;;26.88;;
54201;SDS011;40108;53.152;5.844;2023-04-16T01:26:59;81.82;;;27.05;;
54201;SDS011;40108;53.152;5.844;2023-04-16T01:29:25;78.10;;;28.48;;
54201;SDS011;40108;53.152;5.844;2023-04-16T01:31:51;76.00;;;28.58;;
54201;SDS011;40108;53.152;5.844;2023-04-16T01:34:17;78.90;;;28.95;;
54201;SDS011;40108;53.152;5.844;2023-04-16T01:36:42;89.13;;;29.73;;
54201;SDS011;40108;53.152;5.844;2023-04-16T01:39:08;84.75;;;30.00;;
54201;SDS011;40108;53.152;5.844;2023-04-16T01:41:38;87.38;;;29.13;;
54201;SDS011;40108;53.152;5.844;2023-04-16T01:44:04;89.53;;;31.08;;
54201;SDS011;40108;53.152;5.844;2023-04-16T01:46:31;96.63;;;32.40;;
54201;SDS011;40108;53.152;5.844;2023-04-16T01:48:59;98.30;;;32.70;;
54201;SDS011;40108;53.152;5.844;2023-04-16T01:51:25;104.05;;;34.85;;
54201;SDS011;40108;53.152;5.844;2023-04-16T01:53:52;103.72;;;35.00;;
54201;SDS011;40108;53.152;5.844;2023-04-16T01:56:18;104.32;;;31.83;;
54201;SDS011;40108;53.152;5.844;2023-04-16T01:58:44;102.75;;;32.30;;
54201;SDS011;40108;53.152;5.844;2023-04-16T02:01:11;104.38;;;31.70;;
54201;SDS011;40108;53.152;5.844;2023-04-16T02:03:37;104.75;;;31.88;;
54201;SDS011;40108;53.152;5.844;2023-04-16T02:06:04;97.05;;;31.92;;
54201;SDS011;40108;53.152;5.844;2023-04-16T02:08:30;99.80;;;31.70;;
54201;SDS011;40108;53.152;5.844;2023-04-16T02:10:56;100.43;;;31.08;;
54201;SDS011;40108;53.152;5.844;2023-04-16T02:13:22;104.53;;;32.00;;
54201;SDS011;40108;53.152;5.844;2023-04-16T02:15:50;106.07;;;31.92;;
54201;SDS011;40108;53.152;5.844;2023-04-16T02:18:16;103.10;;;30.95;;
54201;SDS011;40108;53.152;5.844;2023-04-16T02:20:42;111.10;;;32.47;;
54201;SDS011;40108;53.152;5.844;2023-04-16T02:23:09;92.55;;;31.38;;
54201;SDS011;40108;53.152;5.844;2023-04-16T02:25:42;103.80;;;33.33;;
54201;SDS011;40108;53.152;5.844;2023-04-16T02:28:09;112.88;;;31.80;;
54201;SDS011;40108;53.152;5.844;2023-04-16T02:30:37;111.82;;;32.05;;
54201;SDS011;40108;53.152;5.844;2023-04-16T02:33:05;118.07;;;34.05;;
54201;SDS011;40108;53.152;5.844;2023-04-16T02:35:33;113.88;;;34.53;;
54201;SDS011;40108;53.152;5.844;2023-04-16T02:37:59;106.47;;;34.47;;
54201;SDS011;40108;53.152;5.844;2023-04-16T02:40:25;112.07;;;33.55;;
54201;SDS011;40108;53.152;5.844;2023-04-16T02:42:51;99.40;;;34.03;;
54201;SDS011;40108;53.152;5.844;2023-04-16T02:45:18;102.63;;;33.40;;
54201;SDS011;40108;53.152;5.844;2023-04-16T02:47:44;100.72;;;32.67;;
54201;SDS011;40108;53.152;5.844;2023-04-16T02:50:10;113.07;;;34.50;;
54201;SDS011;40108;53.152;5.844;2023-04-16T02:52:36;100.75;;;33.95;;
54201;SDS011;40108;53.152;5.844;2023-04-16T02:55:02;105.15;;;33.88;;
54201;SDS011;40108;53.152;5.844;2023-04-16T02:57:28;111.85;;;34.15;;
54201;SDS011;40108;53.152;5.844;2023-04-16T02:59:53;100.63;;;31.48;;
54201;SDS011;40108;53.152;5.844;2023-04-16T03:02:19;98.90;;;32.97;;
54201;SDS011;40108;53.152;5.844;2023-04-16T03:04:45;100.97;;;32.33;;
54201;SDS011;40108;53.152;5.844;2023-04-16T03:07:11;108.93;;;33.97;;
54201;SDS011;40108;53.152;5.844;2023-04-16T03:09:37;91.85;;;32.40;;
54201;SDS011;40108;53.152;5.844;2023-04-16T03:12:03;84.03;;;32.92;;
54201;SDS011;40108;53.152;5.844;2023-04-16T03:14:29;90.03;;;33.33;;
54201;SDS011;40108;53.152;5.844;2023-04-16T03:16:55;94.85;;;33.53;;
54201;SDS011;40108;53.152;5.844;2023-04-16T03:19:21;89.20;;;32.88;;
54201;SDS011;40108;53.152;5.844;2023-04-16T03:21:47;96.30;;;35.28;;
54201;SDS011;40108;53.152;5.844;2023-04-16T03:24:13;118.00;;;36.25;;
54201;SDS011;40108;53.152;5.844;2023-04-16T03:26:38;105.78;;;35.15;;
54201;SDS011;40108;53.152;5.844;2023-04-16T03:29:04;95.45;;;34.58;;
54201;SDS011;40108;53.152;5.844;2023-04-16T03:31:30;117.25;;;37.33;;
54201;SDS011;40108;53.152;5.844;2023-04-16T03:33:56;114.88;;;36.13;;
54201;SDS011;40108;53.152;5.844;2023-04-16T03:36:21;107.05;;;36.05;;
54201;SDS011;40108;53.152;5.844;2023-04-16T03:38:50;103.15;;;36.50;;
54201;SDS011;40108;53.152;5.844;2023-04-16T03:41:16;135.50;;;38.50;;
54201;SDS011;40108;53.152;5.844;2023-04-16T03:43:41;117.20;;;38.22;;
54201;SDS011;40108;53.152;5.844;2023-04-16T03:46:07;118.65;;;39.78;;
54201;SDS011;40108;53.152;5.844;2023-04-16T03:48:33;126.25;;;38.95;;
54201;SDS011;40108;53.152;5.844;2023-04-16T03:50:58;111.85;;;38.47;;
54201;SDS011;40108;53.152;5.844;2023-04-16T03:53:24;131.20;;;38.67;;
54201;SDS011;40108;53.152;5.844;2023-04-16T03:55:50;113.28;;;37.78;;
54201;SDS011;40108;53.152;5.844;2023-04-16T03:58:17;123.20;;;38.20;;
54201;SDS011;40108;53.152;5.844;2023-04-16T04:00:43;126.68;;;39.92;;
54201;SDS011;40108;53.152;5.844;2023-04-16T04:03:09;133.82;;;38.47;;
54201;SDS011;40108;53.152;5.844;2023-04-16T04:05:35;115.40;;;36.45;;
54201;SDS011;40108;53.152;5.844;2023-04-16T04:08:03;132.27;;;35.92;;
54201;SDS011;40108;53.152;5.844;2023-04-16T04:10:30;122.97;;;37.67;;
54201;SDS011;40108;53.152;5.844;2023-04-16T04:13:01;114.78;;;38.03;;
54201;SDS011;40108;53.152;5.844;2023-04-16T04:15:28;101.10;;;33.60;;
54201;SDS011;40108;53.152;5.844;2023-04-16T04:17:54;111.88;;;34.53;;
54201;SDS011;40108;53.152;5.844;2023-04-16T04:20:20;107.63;;;34.80;;
54201;SDS011;40108;53.152;5.844;2023-04-16T04:22:46;106.75;;;35.03;;
54201;SDS011;40108;53.152;5.844;2023-04-16T04:25:11;114.75;;;34.08;;
54201;SDS011;40108;53.152;5.844;2023-04-16T04:27:37;117.22;;;35.35;;
54201;SDS011;40108;53.152;5.844;2023-04-16T04:30:04;108.63;;;32.72;;
54201;SDS011;40108;53.152;5.844;2023-04-16T04:32:30;104.10;;;32.22;;
54201;SDS011;40108;53.152;5.844;2023-04-16T04:34:56;103.68;;;32.25;;
54201;SDS011;40108;53.152;5.844;2023-04-16T04:37:24;103.43;;;33.63;;
54201;SDS011;40108;53.152;5.844;2023-04-16T04:39:49;109.15;;;33.05;;
54201;SDS011;40108;53.152;5.844;2023-04-16T04:42:19;104.32;;;33.85;;
54201;SDS011;40108;53.152;5.844;2023-04-16T04:44:45;101.95;;;33.25;;
54201;SDS011;40108;53.152;5.844;2023-04-16T04:47:12;107.28;;;33.40;;
54201;SDS011;40108;53.152;5.844;2023-04-16T04:49:38;112.28;;;33.28;;
54201;SDS011;40108;53.152;5.844;2023-04-16T04:52:04;113.75;;;33.40;;
54201;SDS011;40108;53.152;5.844;2023-04-16T04:54:30;108.05;;;32.55;;
54201;SDS011;40108;53.152;5.844;2023-04-16T04:56:56;103.28;;;32.03;;
54201;SDS011;40108;53.152;5.844;2023-04-16T04:59:22;108.30;;;30.95;;
54201;SDS011;40108;53.152;5.844;2023-04-16T05:01:49;117.32;;;29.55;;
54201;SDS011;40108;53.152;5.844;2023-04-16T05:04:15;101.60;;;28.23;;
54201;SDS011;40108;53.152;5.844;2023-04-16T05:06:41;100.90;;;26.13;;
54201;SDS011;40108;53.152;5.844;2023-04-16T05:09:07;97.55;;;25.55;;
54201;SDS011;40108;53.152;5.844;2023-04-16T05:11:36;97.15;;;25.35;;
54201;SDS011;40108;53.152;5.844;2023-04-16T05:14:02;96.88;;;25.23;;
54201;SDS011;40108;53.152;5.844;2023-04-16T05:16:29;107.80;;;26.05;;
54201;SDS011;40108;53.152;5.844;2023-04-16T05:18:54;102.25;;;24.85;;
54201;SDS011;40108;53.152;5.844;2023-04-16T05:21:21;88.50;;;24.63;;
54201;SDS011;40108;53.152;5.844;2023-04-16T05:23:48;98.57;;;24.50;;
54201;SDS011;40108;53.152;5.844;2023-04-16T05:26:13;92.43;;;25.33;;
54201;SDS011;40108;53.152;5.844;2023-04-16T05:28:39;93.88;;;24.55;;
54201;SDS011;40108;53.152;5.844;2023-04-16T05:31:05;88.18;;;23.75;;
54201;SDS011;40108;53.152;5.844;2023-04-16T05:33:30;113.65;;;25.50;;
54201;SDS011;40108;53.152;5.844;2023-04-16T05:35:56;110.45;;;26.13;;
54201;SDS011;40108;53.152;5.844;2023-04-16T05:38:22;101.97;;;24.88;;
54201;SDS011;40108;53.152;5.844;2023-04-16T05:40:48;96.93;;;24.92;;
54201;SDS011;40108;53.152;5.844;2023-04-16T05:43:13;97.38;;;24.70;;
54201;SDS011;40108;53.152;5.844;2023-04-16T05:45:39;88.60;;;25.02;;
54201;SDS011;40108;53.152;5.844;2023-04-16T05:48:06;91.45;;;26.50;;
54201;SDS011;40108;53.152;5.844;2023-04-16T05:50:36;91.68;;;26.27;;
54201;SDS011;40108;53.152;5.844;2023-04-16T05:53:03;83.53;;;25.67;;
54201;SDS011;40108;53.152;5.844;2023-04-16T05:55:30;80.75;;;25.70;;
54201;SDS011;40108;53.152;5.844;2023-04-16T05:57:56;93.68;;;27.02;;
54201;SDS011;40108;53.152;5.844;2023-04-16T06:00:22;97.35;;;25.95;;
54201;SDS011;40108;53.152;5.844;2023-04-16T06:02:47;91.85;;;26.30;;
54201;SDS011;40108;53.152;5.844;2023-04-16T06:05:14;96.10;;;27.08;;
54201;SDS011;40108;53.152;5.844;2023-04-16T06:07:40;87.63;;;25.80;;
54201;SDS011;40108;53.152;5.844;2023-04-16T06:10:06;83.15;;;25.55;;
54201;SDS011;40108;53.152;5.844;2023-04-16T06:12:32;89.50;;;25.65;;
54201;SDS011;40108;53.152;5.844;2023-04-16T06:14:58;87.68;;;24.40;;
54201;SDS011;40108;53.152;5.844;2023-04-16T06:17:25;94.47;;;25.30;;
54201;SDS011;40108;53.152;5.844;2023-04-16T06:19:57;85.80;;;24.83;;
54201;SDS011;40108;53.152;5.844;2023-04-16T06:22:33;79.38;;;23.65;;
54201;SDS011;40108;53.152;5.844;2023-04-16T06:24:59;70.35;;;23.48;;
54201;SDS011;40108;53.152;5.844;2023-04-16T06:27:25;81.18;;;24.13;;
54201;SDS011;40108;53.152;5.844;2023-04-16T06:29:51;83.85;;;24.88;;
54201;SDS011;40108;53.152;5.844;2023-04-16T06:32:17;80.10;;;24.35;;
54201;SDS011;40108;53.152;5.844;2023-04-16T06:34:42;89.05;;;24.83;;
54201;SDS011;40108;53.152;5.844;2023-04-16T06:37:08;87.18;;;24.02;;
54201;SDS011;40108;53.152;5.844;2023-04-16T06:39:34;105.35;;;27.45;;
54201;SDS011;40108;53.152;5.844;2023-04-16T06:41:59;84.63;;;25.13;;
54201;SDS011;40108;53.152;5.844;2023-04-16T06:44:25;92.75;;;25.05;;
54201;SDS011;40108;53.152;5.844;2023-04-16T06:46:51;90.63;;;25.70;;
54201;SDS011;40108;53.152;5.844;2023-04-16T06:49:17;91.55;;;25.33;;
54201;SDS011;40108;53.152;5.844;2023-04-16T06:51:42;102.95;;;26.55;;
54201;SDS011;40108;53.152;5.844;2023-04-16T06:54:08;74.07;;;24.00;;
54201;SDS011;40108;53.152;5.844;2023-04-16T06:56:34;80.32;;;25.42;;
54201;SDS011;40108;53.152;5.844;2023-04-16T06:59:01;85.30;;;25.88;;
54201;SDS011;40108;53.152;5.844;2023-04-16T07:01:27;78.82;;;25.50;;
54201;SDS011;40108;53.152;5.844;2023-04-16T07:03:55;72.03;;;25.73;;
54201;SDS011;40108;53.152;5.844;2023-04-16T07:06:21;74.88;;;25.10;;
54201;SDS011;40108;53.152;5.844;2023-04-16T07:08:47;64.53;;;22.35;;
54201;SDS011;40108;53.152;5.844;2023-04-16T07:11:12;66.22;;;22.75;;
54201;SDS011;40108;53.152;5.844;2023-04-16T07:13:38;72.78;;;20.75;;
54201;SDS011;40108;53.152;5.844;2023-04-16T07:16:04;71.65;;;21.30;;
54201;SDS011;40108;53.152;5.844;2023-04-16T07:18:30;60.00;;;20.63;;
54201;SDS011;40108;53.152;5.844;2023-04-16T07:20:56;61.75;;;19.55;;
54201;SDS011;40108;53.152;5.844;2023-04-16T07:23:22;62.70;;;20.92;;
54201;SDS011;40108;53.152;5.844;2023-04-16T07:25:47;77.45;;;21.70;;
54201;SDS011;40108;53.152;5.844;2023-04-16T07:28:13;65.70;;;20.90;;
54201;SDS011;40108;53.152;5.844;2023-04-16T07:30:41;64.55;;;19.35;;
54201;SDS011;40108;53.152;5.844;2023-04-16T07:33:07;75.72;;;20.73;;
54201;SDS011;40108;53.152;5.844;2023-04-16T07:35:33;58.35;;;18.85;;
54201;SDS011;40108;53.152;5.844;2023-04-16T07:37:59;63.65;;;19.75;;
54201;SDS011;40108;53.152;5.844;2023-04-16T07:40:25;55.75;;;19.02;;
54201;SDS011;40108;53.152;5.844;2023-04-16T07:42:51;59.13;;;18.40;;
54201;SDS011;40108;53.152;5.844;2023-04-16T07:45:17;65.45;;;19.70;;
54201;SDS011;40108;53.152;5.844;2023-04-16T07:47:43;64.82;;;20.38;;
54201;SDS011;40108;53.152;5.844;2023-04-16T07:50:10;60.95;;;20.80;;
54201;SDS011;40108;53.152;5.844;2023-04-16T07:52:36;62.75;;;19.80;;
54201;SDS011;40108;53.152;5.844;2023-04-16T07:55:05;63.33;;;19.85;;
54201;SDS011;40108;53.152;5.844;2023-04-16T07:57:32;54.60;;;19.50;;
54201;SDS011;40108;53.152;5.844;2023-04-16T07:59:58;48.55;;;19.00;;
54201;SDS011;40108;53.152;5.844;2023-04-16T08:02:26;57.40;;;18.48;;
54201;SDS011;40108;53.152;5.844;2023-04-16T08:04:52;47.45;;;18.70;;
54201;SDS011;40108;53.152;5.844;2023-04-16T08:07:17;50.33;;;18.45;;
54201;SDS011;40108;53.152;5.844;2023-04-16T08:09:47;68.55;;;20.92;;
54201;SDS011;40108;53.152;5.844;2023-04-16T08:12:14;59.22;;;20.23;;
54201;SDS011;40108;53.152;5.844;2023-04-16T08:14:41;55.58;;;19.45;;
54201;SDS011;40108;53.152;5.844;2023-04-16T08:17:07;67.85;;;22.05;;
54201;SDS011;40108;53.152;5.844;2023-04-16T08:19:33;83.18;;;23.38;;
54201;SDS011;40108;53.152;5.844;2023-04-16T08:21:59;66.95;;;22.00;;
54201;SDS011;40108;53.152;5.844;2023-04-16T08:24:25;63.08;;;20.58;;
54201;SDS011;40108;53.152;5.844;2023-04-16T08:26:51;61.33;;;21.23;;
54201;SDS011;40108;53.152;5.844;2023-04-16T08:29:16;64.30;;;20.05;;
54201;SDS011;40108;53.152;5.844;2023-04-16T08:31:42;61.78;;;21.00;;
54201;SDS011;40108;53.152;5.844;2023-04-16T08:34:08;67.15;;;20.85;;
54201;SDS011;40108;53.152;5.844;2023-04-16T08:36:35;67.93;;;22.25;;
54201;SDS011;40108;53.152;5.844;2023-04-16T08:39:01;59.95;;;18.52;;
54201;SDS011;40108;53.152;5.844;2023-04-16T08:41:28;66.70;;;19.30;;
54201;SDS011;40108;53.152;5.844;2023-04-16T08:43:56;63.38;;;19.13;;
54201;SDS011;40108;53.152;5.844;2023-04-16T08:46:26;55.25;;;18.38;;
54201;SDS011;40108;53.152;5.844;2023-04-16T08:48:53;55.42;;;19.85;;
54201;SDS011;40108;53.152;5.844;2023-04-16T08:51:22;56.42;;;21.02;;
54201;SDS011;40108;53.152;5.844;2023-04-16T08:53:51;56.85;;;18.75;;
54201;SDS011;40108;53.152;5.844;2023-04-16T08:56:22;50.90;;;18.00;;
54201;SDS011;40108;53.152;5.844;2023-04-16T08:58:49;58.28;;;19.80;;
54201;SDS011;40108;53.152;5.844;2023-04-16T09:01:16;57.70;;;19.23;;
54201;SDS011;40108;53.152;5.844;2023-04-16T09:03:46;53.22;;;18.35;;
54201;SDS011;40108;53.152;5.844;2023-04-16T09:06:12;57.33;;;18.90;;
54201;SDS011;40108;53.152;5.844;2023-04-16T09:08:39;55.92;;;19.55;;
54201;SDS011;40108;53.152;5.844;2023-04-16T09:11:05;58.97;;;19.02;;
54201;SDS011;40108;53.152;5.844;2023-04-16T09:13:31;53.65;;;19.60;;
54201;SDS011;40108;53.152;5.844;2023-04-16T09:15:57;63.30;;;19.52;;
54201;SDS011;40108;53.152;5.844;2023-04-16T09:18:23;65.20;;;19.35;;
54201;SDS011;40108;53.152;5.844;2023-04-16T09:20:49;59.15;;;18.83;;
54201;SDS011;40108;53.152;5.844;2023-04-16T09:23:16;60.05;;;19.23;;
54201;SDS011;40108;53.152;5.844;2023-04-16T09:25:42;50.30;;;18.08;;
54201;SDS011;40108;53.152;5.844;2023-04-16T09:28:08;46.00;;;18.58;;
54201;SDS011;40108;53.152;5.844;2023-04-16T09:30:35;43.63;;;17.83;;
54201;SDS011;40108;53.152;5.844;2023-04-16T09:35:49;53.25;;;18.40;;
54201;SDS011;40108;53.152;5.844;2023-04-16T09:38:16;45.90;;;18.33;;
54201;SDS011;40108;53.152;5.844;2023-04-16T09:40:42;46.67;;;17.73;;
54201;SDS011;40108;53.152;5.844;2023-04-16T09:43:11;49.85;;;18.13;;
54201;SDS011;40108;53.152;5.844;2023-04-16T09:45:51;40.78;;;17.58;;
54201;SDS011;40108;53.152;5.844;2023-04-16T09:48:28;46.80;;;18.17;;
54201;SDS011;40108;53.152;5.844;2023-04-16T09:50:54;51.83;;;18.42;;
54201;SDS011;40108;53.152;5.844;2023-04-16T09:53:24;51.53;;;18.20;;
54201;SDS011;40108;53.152;5.844;2023-04-16T09:56:01;49.22;;;18.63;;
54201;SDS011;40108;53.152;5.844;2023-04-16T09:58:30;50.22;;;19.00;;
54201;SDS011;40108;53.152;5.844;2023-04-16T10:03:35;59.45;;;19.55;;
54201;SDS011;40108;53.152;5.844;2023-04-16T10:06:19;44.55;;;18.92;;
54201;SDS011;40108;53.152;5.844;2023-04-16T10:08:46;54.97;;;20.67;;
54201;SDS011;40108;53.152;5.844;2023-04-16T10:11:12;54.83;;;18.58;;
54201;SDS011;40108;53.152;5.844;2023-04-16T10:13:38;54.38;;;19.48;;
54201;SDS011;40108;53.152;5.844;2023-04-16T10:16:05;50.30;;;19.42;;
54201;SDS011;40108;53.152;5.844;2023-04-16T10:18:33;42.95;;;19.60;;
54201;SDS011;40108;53.152;5.844;2023-04-16T10:21:02;50.35;;;18.55;;
54201;SDS011;40108;53.152;5.844;2023-04-16T10:23:28;55.85;;;20.10;;
54201;SDS011;40108;53.152;5.844;2023-04-16T10:25:54;49.03;;;20.73;;
54201;SDS011;40108;53.152;5.844;2023-04-16T10:28:20;48.22;;;20.55;;
54201;SDS011;40108;53.152;5.844;2023-04-16T10:30:46;43.53;;;20.27;;
54201;SDS011;40108;53.152;5.844;2023-04-16T10:33:24;45.38;;;19.52;;
54201;SDS011;40108;53.152;5.844;2023-04-16T10:36:05;53.70;;;19.90;;
54201;SDS011;40108;53.152;5.844;2023-04-16T10:38:34;51.35;;;19.58;;
54201;SDS011;40108;53.152;5.844;2023-04-16T10:41:03;53.35;;;20.35;;
54201;SDS011;40108;53.152;5.844;2023-04-16T10:43:32;50.25;;;19.75;;
54201;SDS011;40108;53.152;5.844;2023-04-16T10:46:20;43.38;;;18.02;;
54201;SDS011;40108;53.152;5.844;2023-04-16T10:48:57;42.95;;;20.48;;
54201;SDS011;40108;53.152;5.844;2023-04-16T10:51:32;49.45;;;21.02;;
54201;SDS011;40108;53.152;5.844;2023-04-16T10:54:03;39.88;;;19.52;;
54201;SDS011;40108;53.152;5.844;2023-04-16T10:56:32;45.20;;;18.85;;
54201;SDS011;40108;53.152;5.844;2023-04-16T10:58:59;44.58;;;20.17;;
54201;SDS011;40108;53.152;5.844;2023-04-16T11:01:43;52.08;;;20.45;;
54201;SDS011;40108;53.152;5.844;2023-04-16T11:07:04;47.10;;;22.15;;
54201;SDS011;40108;53.152;5.844;2023-04-16T11:12:19;39.83;;;19.58;;
54201;SDS011;40108;53.152;5.844;2023-04-16T11:14:48;42.55;;;19.73;;
54201;SDS011;40108;53.152;5.844;2023-04-16T11:17:15;36.63;;;19.08;;
54201;SDS011;40108;53.152;5.844;2023-04-16T11:19:42;48.05;;;20.13;;
54201;SDS011;40108;53.152;5.844;2023-04-16T11:22:09;45.38;;;19.90;;
54201;SDS011;40108;53.152;5.844;2023-04-16T11:24:37;40.15;;;19.23;;
54201;SDS011;40108;53.152;5.844;2023-04-16T11:27:05;36.53;;;18.67;;
54201;SDS011;40108;53.152;5.844;2023-04-16T11:29:33;36.90;;;19.40;;
54201;SDS011;40108;53.152;5.844;2023-04-16T11:31:59;33.38;;;18.30;;
54201;SDS011;40108;53.152;5.844;2023-04-16T11:34:25;41.20;;;18.58;;
54201;SDS011;40108;53.152;5.844;2023-04-16T11:36:51;51.33;;;18.40;;
54201;SDS011;40108;53.152;5.844;2023-04-16T11:39:17;42.22;;;18.38;;
54201;SDS011;40108;53.152;5.844;2023-04-16T11:41:43;40.70;;;18.67;;
54201;SDS011;40108;53.152;5.844;2023-04-16T11:44:19;36.17;;;18.60;;
54201;SDS011;40108;53.152;5.844;2023-04-16T11:46:49;38.97;;;18.25;;
54201;SDS011;40108;53.152;5.844;2023-04-16T11:49:16;38.97;;;18.60;;
54201;SDS011;40108;53.152;5.844;2023-04-16T11:51:51;33.25;;;18.15;;
54201;SDS011;40108;53.152;5.844;2023-04-16T11:54:21;39.47;;;18.15;;
54201;SDS011;40108;53.152;5.844;2023-04-16T11:56:49;43.17;;;19.83;;
54201;SDS011;40108;53.152;5.844;2023-04-16T11:59:20;45.22;;;19.42;;
54201;SDS011;40108;53.152;5.844;2023-04-16T12:01:48;48.00;;;19.40;;
54201;SDS011;40108;53.152;5.844;2023-04-16T12:04:15;47.05;;;20.80;;
54201;SDS011;40108;53.152;5.844;2023-04-16T12:09:35;54.40;;;19.02;;
54201;SDS011;40108;53.152;5.844;2023-04-16T12:12:02;39.08;;;19.33;;
54201;SDS011;40108;53.152;5.844;2023-04-16T12:14:29;39.67;;;19.27;;
54201;SDS011;40108;53.152;5.844;2023-04-16T12:16:56;44.38;;;19.08;;
54201;SDS011;40108;53.152;5.844;2023-04-16T12:19:51;43.97;;;19.90;;
54201;SDS011;40108;53.152;5.844;2023-04-16T12:22:30;41.28;;;18.77;;
54201;SDS011;40108;53.152;5.844;2023-04-16T12:25:02;42.45;;;19.40;;
54201;SDS011;40108;53.152;5.844;2023-04-16T12:27:48;34.35;;;17.23;;
54201;SDS011;40108;53.152;5.844;2023-04-16T12:30:17;39.35;;;19.13;;
54201;SDS011;40108;53.152;5.844;2023-04-16T12:32:48;43.72;;;18.42;;
54201;SDS011;40108;53.152;5.844;2023-04-16T12:35:28;31.08;;;17.58;;
54201;SDS011;40108;53.152;5.844;2023-04-16T12:37:55;29.58;;;17.95;;
54201;SDS011;40108;53.152;5.844;2023-04-16T12:40:21;34.30;;;18.90;;
54201;SDS011;40108;53.152;5.844;2023-04-16T12:42:47;31.02;;;17.60;;
54201;SDS011;40108;53.152;5.844;2023-04-16T12:45:12;41.08;;;19.20;;
54201;SDS011;40108;53.152;5.844;2023-04-16T12:47:38;38.35;;;18.83;;
54201;SDS011;40108;53.152;5.844;2023-04-16T12:50:04;32.25;;;18.50;;
54201;SDS011;40108;53.152;5.844;2023-04-16T12:52:31;35.70;;;17.63;;
54201;SDS011;40108;53.152;5.844;2023-04-16T12:54:56;32.95;;;17.88;;
54201;SDS011;40108;53.152;5.844;2023-04-16T12:57:22;33.70;;;18.27;;
54201;SDS011;40108;53.152;5.844;2023-04-16T12:59:53;31.98;;;19.77;;
54201;SDS011;40108;53.152;5.844;2023-04-16T13:02:20;36.97;;;20.55;;
54201;SDS011;40108;53.152;5.844;2023-04-16T13:04:46;37.08;;;19.27;;
54201;SDS011;40108;53.152;5.844;2023-04-16T13:07:12;31.85;;;19.02;;
54201;SDS011;40108;53.152;5.844;2023-04-16T13:09:38;31.38;;;18.13;;
54201;SDS011;40108;53.152;5.844;2023-04-16T13:12:05;36.70;;;19.00;;
54201;SDS011;40108;53.152;5.844;2023-04-16T13:14:31;31.55;;;18.88;;
54201;SDS011;40108;53.152;5.844;2023-04-16T13:16:57;34.75;;;18.50;;
54201;SDS011;40108;53.152;5.844;2023-04-16T13:19:23;40.30;;;19.80;;
54201;SDS011;40108;53.152;5.844;2023-04-16T13:21:48;35.35;;;18.73;;
54201;SDS011;40108;53.152;5.844;2023-04-16T13:24:14;35.53;;;19.23;;
54201;SDS011;40108;53.152;5.844;2023-04-16T13:26:40;37.45;;;19.23;;
54201;SDS011;40108;53.152;5.844;2023-04-16T13:29:07;34.53;;;19.80;;
54201;SDS011;40108;53.152;5.844;2023-04-16T13:31:33;35.00;;;19.02;;
54201;SDS011;40108;53.152;5.844;2023-04-16T13:33:59;32.47;;;19.27;;
54201;SDS011;40108;53.152;5.844;2023-04-16T13:36:25;34.80;;;19.00;;
54201;SDS011;40108;53.152;5.844;2023-04-16T13:38:51;37.30;;;18.80;;
54201;SDS011;40108;53.152;5.844;2023-04-16T13:41:17;31.38;;;18.20;;
54201;SDS011;40108;53.152;5.844;2023-04-16T13:43:43;33.53;;;17.70;;
54201;SDS011;40108;53.152;5.844;2023-04-16T13:46:08;25.58;;;16.85;;
54201;SDS011;40108;53.152;5.844;2023-04-16T13:48:34;53.33;;;23.13;;
54201;SDS011;40108;53.152;5.844;2023-04-16T13:51:01;30.88;;;18.48;;
54201;SDS011;40108;53.152;5.844;2023-04-16T13:53:27;35.22;;;17.90;;
54201;SDS011;40108;53.152;5.844;2023-04-16T13:55:53;33.60;;;18.95;;
54201;SDS011;40108;53.152;5.844;2023-04-16T13:58:18;36.45;;;18.60;;
54201;SDS011;40108;53.152;5.844;2023-04-16T14:00:44;33.20;;;17.95;;
54201;SDS011;40108;53.152;5.844;2023-04-16T14:03:10;34.05;;;18.15;;
54201;SDS011;40108;53.152;5.844;2023-04-16T14:05:36;33.08;;;18.17;;
54201;SDS011;40108;53.152;5.844;2023-04-16T14:08:01;30.48;;;17.85;;
54201;SDS011;40108;53.152;5.844;2023-04-16T14:10:27;30.10;;;17.98;;
54201;SDS011;40108;53.152;5.844;2023-04-16T14:12:53;35.53;;;18.00;;
54201;SDS011;40108;53.152;5.844;2023-04-16T14:15:19;32.00;;;19.17;;
54201;SDS011;40108;53.152;5.844;2023-04-16T14:17:45;27.25;;;18.98;;
54201;SDS011;40108;53.152;5.844;2023-04-16T14:20:11;29.05;;;18.42;;
54201;SDS011;40108;53.152;5.844;2023-04-16T14:22:38;33.75;;;18.45;;
54201;SDS011;40108;53.152;5.844;2023-04-16T14:25:06;31.52;;;18.30;;
54201;SDS011;40108;53.152;5.844;2023-04-16T14:27:32;31.00;;;18.50;;
54201;SDS011;40108;53.152;5.844;2023-04-16T14:29:58;33.00;;;19.40;;
54201;SDS011;40108;53.152;5.844;2023-04-16T14:32:24;34.30;;;18.38;;